Terminal Aerodrome Forecast
Issued by NWS

Home | Current Version | Previous Version | Text Only | Print | Product List | Glossary On
Versions: 1 2 3 4 5 6 7 8 9 10 11 12 13 14 15 16 17 18 19 20 21 22 23 24 25 26 27 28 29 30 31 32 33 34 35 36
000
FTUS41 KBOX 011138
TAFFMH
TAF
KFMH 011138Z 0112/0212 25006KT 1 1/2SM BR OVC003
     FM011400 24007KT P6SM OVC008
     FM011600 24007KT P6SM OVC030
     FM011700 22007KT P6SM VCTS BKN025CB
     FM012200 22006KT P6SM VCTS BKN040CB
     FM020000 22006KT P6SM BKN045
     FM020900 24005KT 1/4SM FG OVC008=

USA.gov is the U.S. government's official web portal to all federal, state and local government web resources and services.